sensor_id;sensor_type;location;lat;lon;timestamp;P1;durP1;ratioP1;P2;durP2;ratioP2
80257;SDS011;69565;37.974;23.708;2023-05-14T00:01:36;2.92;;;0.60;;
80257;SDS011;69565;37.974;23.708;2023-05-14T00:04:02;1.83;;;0.70;;
80257;SDS011;69565;37.974;23.708;2023-05-14T00:06:28;3.08;;;0.80;;
80257;SDS011;69565;37.974;23.708;2023-05-14T00:08:54;1.13;;;0.50;;
80257;SDS011;69565;37.974;23.708;2023-05-14T00:11:19;1.10;;;0.60;;
80257;SDS011;69565;37.974;23.708;2023-05-14T00:13:45;2.90;;;0.80;;
80257;SDS011;69565;37.974;23.708;2023-05-14T00:16:11;1.52;;;0.70;;
80257;SDS011;69565;37.974;23.708;2023-05-14T00:18:37;2.33;;;0.60;;
80257;SDS011;69565;37.974;23.708;2023-05-14T00:21:02;1.52;;;0.70;;
80257;SDS011;69565;37.974;23.708;2023-05-14T00:23:28;1.00;;;0.55;;
80257;SDS011;69565;37.974;23.708;2023-05-14T00:25:54;0.68;;;0.50;;
80257;SDS011;69565;37.974;23.708;2023-05-14T00:28:20;1.45;;;0.60;;
80257;SDS011;69565;37.974;23.708;2023-05-14T00:30:46;1.00;;;0.60;;
80257;SDS011;69565;37.974;23.708;2023-05-14T00:33:11;0.70;;;0.50;;
80257;SDS011;69565;37.974;23.708;2023-05-14T00:35:37;1.75;;;0.50;;
80257;SDS011;69565;37.974;23.708;2023-05-14T00:38:03;0.90;;;0.60;;
80257;SDS011;69565;37.974;23.708;2023-05-14T00:40:29;1.27;;;0.60;;
80257;SDS011;69565;37.974;23.708;2023-05-14T00:42:55;1.65;;;0.57;;
80257;SDS011;69565;37.974;23.708;2023-05-14T00:45:21;2.00;;;0.85;;
80257;SDS011;69565;37.974;23.708;2023-05-14T00:47:50;1.88;;;0.60;;
80257;SDS011;69565;37.974;23.708;2023-05-14T00:50:16;1.00;;;0.60;;
80257;SDS011;69565;37.974;23.708;2023-05-14T00:52:42;1.58;;;0.77;;
80257;SDS011;69565;37.974;23.708;2023-05-14T00:55:08;3.15;;;0.80;;
80257;SDS011;69565;37.974;23.708;2023-05-14T00:57:37;2.20;;;0.80;;
80257;SDS011;69565;37.974;23.708;2023-05-14T01:00:03;1.15;;;0.63;;
80257;SDS011;69565;37.974;23.708;2023-05-14T01:02:29;2.67;;;0.70;;
80257;SDS011;69565;37.974;23.708;2023-05-14T01:04:55;2.72;;;1.00;;
80257;SDS011;69565;37.974;23.708;2023-05-14T01:10:31;2.25;;;0.60;;
80257;SDS011;69565;37.974;23.708;2023-05-14T01:15:54;3.13;;;0.80;;
80257;SDS011;69565;37.974;23.708;2023-05-14T01:18:22;2.85;;;0.90;;
80257;SDS011;69565;37.974;23.708;2023-05-14T01:20:50;1.05;;;0.65;;
80257;SDS011;69565;37.974;23.708;2023-05-14T01:23:16;2.88;;;0.80;;
80257;SDS011;69565;37.974;23.708;2023-05-14T01:25:42;1.38;;;0.70;;
80257;SDS011;69565;37.974;23.708;2023-05-14T01:28:11;1.10;;;0.65;;
80257;SDS011;69565;37.974;23.708;2023-05-14T01:30:47;1.52;;;0.70;;
80257;SDS011;69565;37.974;23.708;2023-05-14T01:33:23;1.83;;;0.68;;
80257;SDS011;69565;37.974;23.708;2023-05-14T01:35:51;1.92;;;0.73;;
80257;SDS011;69565;37.974;23.708;2023-05-14T01:38:18;1.67;;;0.70;;
80257;SDS011;69565;37.974;23.708;2023-05-14T01:40:45;2.25;;;0.82;;
80257;SDS011;69565;37.974;23.708;2023-05-14T01:43:13;3.25;;;0.70;;
80257;SDS011;69565;37.974;23.708;2023-05-14T01:45:40;1.13;;;0.60;;
80257;SDS011;69565;37.974;23.708;2023-05-14T01:48:06;2.83;;;0.73;;
80257;SDS011;69565;37.974;23.708;2023-05-14T01:50:32;2.33;;;0.80;;
80257;SDS011;69565;37.974;23.708;2023-05-14T01:52:58;2.70;;;0.80;;
80257;SDS011;69565;37.974;23.708;2023-05-14T01:55:23;3.70;;;0.90;;
80257;SDS011;69565;37.974;23.708;2023-05-14T01:57:52;1.83;;;0.90;;
80257;SDS011;69565;37.974;23.708;2023-05-14T02:00:19;1.42;;;0.73;;
80257;SDS011;69565;37.974;23.708;2023-05-14T02:02:51;1.85;;;0.90;;
80257;SDS011;69565;37.974;23.708;2023-05-14T02:05:17;1.83;;;0.90;;
80257;SDS011;69565;37.974;23.708;2023-05-14T02:07:43;1.75;;;0.70;;
80257;SDS011;69565;37.974;23.708;2023-05-14T02:10:09;1.10;;;0.70;;
80257;SDS011;69565;37.974;23.708;2023-05-14T02:12:35;2.58;;;0.77;;
80257;SDS011;69565;37.974;23.708;2023-05-14T02:15:01;0.98;;;0.70;;
80257;SDS011;69565;37.974;23.708;2023-05-14T02:17:28;1.20;;;0.70;;
80257;SDS011;69565;37.974;23.708;2023-05-14T02:19:53;1.00;;;0.60;;
80257;SDS011;69565;37.974;23.708;2023-05-14T02:22:19;1.60;;;0.80;;
80257;SDS011;69565;37.974;23.708;2023-05-14T02:24:45;1.65;;;0.70;;
80257;SDS011;69565;37.974;23.708;2023-05-14T02:27:11;0.80;;;0.60;;
80257;SDS011;69565;37.974;23.708;2023-05-14T02:29:37;1.10;;;0.73;;
80257;SDS011;69565;37.974;23.708;2023-05-14T02:32:03;1.10;;;0.70;;
80257;SDS011;69565;37.974;23.708;2023-05-14T02:34:29;1.45;;;0.80;;
80257;SDS011;69565;37.974;23.708;2023-05-14T02:36:55;1.73;;;0.80;;
80257;SDS011;69565;37.974;23.708;2023-05-14T02:39:21;1.27;;;0.80;;
80257;SDS011;69565;37.974;23.708;2023-05-14T02:41:46;1.60;;;0.80;;
80257;SDS011;69565;37.974;23.708;2023-05-14T02:44:12;2.47;;;1.00;;
80257;SDS011;69565;37.974;23.708;2023-05-14T02:46:38;3.65;;;0.85;;
80257;SDS011;69565;37.974;23.708;2023-05-14T02:49:04;3.55;;;1.00;;
80257;SDS011;69565;37.974;23.708;2023-05-14T02:51:29;4.80;;;0.85;;
80257;SDS011;69565;37.974;23.708;2023-05-14T02:53:55;2.17;;;1.00;;
80257;SDS011;69565;37.974;23.708;2023-05-14T02:56:21;1.70;;;0.77;;
80257;SDS011;69565;37.974;23.708;2023-05-14T02:58:46;2.05;;;0.80;;
80257;SDS011;69565;37.974;23.708;2023-05-14T03:01:12;2.28;;;1.17;;
80257;SDS011;69565;37.974;23.708;2023-05-14T03:03:38;1.80;;;1.00;;
80257;SDS011;69565;37.974;23.708;2023-05-14T03:06:04;2.08;;;0.80;;
80257;SDS011;69565;37.974;23.708;2023-05-14T03:08:30;3.88;;;0.98;;
80257;SDS011;69565;37.974;23.708;2023-05-14T03:10:55;2.30;;;0.80;;
80257;SDS011;69565;37.974;23.708;2023-05-14T03:13:21;3.90;;;1.10;;
80257;SDS011;69565;37.974;23.708;2023-05-14T03:15:47;5.35;;;0.90;;
80257;SDS011;69565;37.974;23.708;2023-05-14T03:18:13;2.53;;;0.90;;
80257;SDS011;69565;37.974;23.708;2023-05-14T03:20:39;1.60;;;0.90;;
80257;SDS011;69565;37.974;23.708;2023-05-14T03:23:05;2.25;;;0.80;;
80257;SDS011;69565;37.974;23.708;2023-05-14T03:25:31;1.70;;;0.70;;
80257;SDS011;69565;37.974;23.708;2023-05-14T03:27:56;2.35;;;0.85;;
80257;SDS011;69565;37.974;23.708;2023-05-14T03:30:22;1.02;;;0.70;;
80257;SDS011;69565;37.974;23.708;2023-05-14T03:32:48;1.35;;;0.80;;
80257;SDS011;69565;37.974;23.708;2023-05-14T03:35:14;1.23;;;0.80;;
80257;SDS011;69565;37.974;23.708;2023-05-14T03:37:40;1.33;;;0.90;;
80257;SDS011;69565;37.974;23.708;2023-05-14T03:40:06;1.25;;;0.70;;
80257;SDS011;69565;37.974;23.708;2023-05-14T03:42:32;1.23;;;0.88;;
80257;SDS011;69565;37.974;23.708;2023-05-14T03:44:57;3.10;;;0.80;;
80257;SDS011;69565;37.974;23.708;2023-05-14T03:47:23;1.48;;;0.75;;
80257;SDS011;69565;37.974;23.708;2023-05-14T03:49:49;1.20;;;0.70;;
80257;SDS011;69565;37.974;23.708;2023-05-14T03:52:14;1.42;;;0.85;;
80257;SDS011;69565;37.974;23.708;2023-05-14T03:54:40;1.20;;;0.80;;
80257;SDS011;69565;37.974;23.708;2023-05-14T03:57:06;1.13;;;0.80;;
80257;SDS011;69565;37.974;23.708;2023-05-14T03:59:32;2.60;;;0.90;;
80257;SDS011;69565;37.974;23.708;2023-05-14T04:01:57;3.10;;;0.90;;
80257;SDS011;69565;37.974;23.708;2023-05-14T04:04:23;2.35;;;0.90;;
80257;SDS011;69565;37.974;23.708;2023-05-14T04:06:49;1.75;;;0.90;;
80257;SDS011;69565;37.974;23.708;2023-05-14T04:09:15;2.72;;;0.98;;
80257;SDS011;69565;37.974;23.708;2023-05-14T04:11:40;2.10;;;1.10;;
80257;SDS011;69565;37.974;23.708;2023-05-14T04:14:06;1.95;;;0.80;;
80257;SDS011;69565;37.974;23.708;2023-05-14T04:16:32;1.52;;;0.80;;
80257;SDS011;69565;37.974;23.708;2023-05-14T04:18:59;3.70;;;1.10;;
80257;SDS011;69565;37.974;23.708;2023-05-14T04:21:26;6.38;;;0.90;;
80257;SDS011;69565;37.974;23.708;2023-05-14T04:23:52;2.80;;;0.85;;
80257;SDS011;69565;37.974;23.708;2023-05-14T04:26:18;2.92;;;1.00;;
80257;SDS011;69565;37.974;23.708;2023-05-14T04:28:44;2.10;;;0.90;;
80257;SDS011;69565;37.974;23.708;2023-05-14T04:31:09;2.13;;;1.02;;
80257;SDS011;69565;37.974;23.708;2023-05-14T04:33:36;3.33;;;1.08;;
80257;SDS011;69565;37.974;23.708;2023-05-14T04:36:01;3.25;;;1.00;;
80257;SDS011;69565;37.974;23.708;2023-05-14T04:38:29;1.88;;;0.98;;
80257;SDS011;69565;37.974;23.708;2023-05-14T04:40:55;2.08;;;1.00;;
80257;SDS011;69565;37.974;23.708;2023-05-14T04:43:23;1.55;;;0.90;;
80257;SDS011;69565;37.974;23.708;2023-05-14T04:45:48;2.40;;;1.02;;
80257;SDS011;69565;37.974;23.708;2023-05-14T04:48:15;4.38;;;1.10;;
80257;SDS011;69565;37.974;23.708;2023-05-14T04:50:41;2.70;;;1.05;;
80257;SDS011;69565;37.974;23.708;2023-05-14T04:53:08;2.25;;;1.00;;
80257;SDS011;69565;37.974;23.708;2023-05-14T04:55:34;1.50;;;0.90;;
80257;SDS011;69565;37.974;23.708;2023-05-14T04:58:01;5.32;;;1.00;;
80257;SDS011;69565;37.974;23.708;2023-05-14T05:00:27;3.95;;;1.00;;
80257;SDS011;69565;37.974;23.708;2023-05-14T05:02:53;3.25;;;1.10;;
80257;SDS011;69565;37.974;23.708;2023-05-14T05:05:19;2.10;;;1.00;;
80257;SDS011;69565;37.974;23.708;2023-05-14T05:07:45;1.73;;;0.90;;
80257;SDS011;69565;37.974;23.708;2023-05-14T05:10:11;1.33;;;0.82;;
80257;SDS011;69565;37.974;23.708;2023-05-14T05:12:36;2.95;;;0.90;;
80257;SDS011;69565;37.974;23.708;2023-05-14T05:15:02;1.50;;;0.90;;
80257;SDS011;69565;37.974;23.708;2023-05-14T05:17:29;1.63;;;0.90;;
80257;SDS011;69565;37.974;23.708;2023-05-14T05:19:54;3.35;;;1.00;;
80257;SDS011;69565;37.974;23.708;2023-05-14T05:22:20;1.65;;;1.00;;
80257;SDS011;69565;37.974;23.708;2023-05-14T05:24:46;1.45;;;0.82;;
80257;SDS011;69565;37.974;23.708;2023-05-14T05:27:12;1.30;;;0.90;;
80257;SDS011;69565;37.974;23.708;2023-05-14T05:29:38;1.40;;;0.90;;
80257;SDS011;69565;37.974;23.708;2023-05-14T05:32:04;2.30;;;1.00;;
80257;SDS011;69565;37.974;23.708;2023-05-14T05:34:30;3.08;;;0.90;;
80257;SDS011;69565;37.974;23.708;2023-05-14T05:36:56;1.30;;;0.90;;
80257;SDS011;69565;37.974;23.708;2023-05-14T05:39:22;1.70;;;0.80;;
80257;SDS011;69565;37.974;23.708;2023-05-14T05:41:48;1.23;;;0.80;;
80257;SDS011;69565;37.974;23.708;2023-05-14T05:44:13;4.65;;;0.80;;
80257;SDS011;69565;37.974;23.708;2023-05-14T05:46:39;1.60;;;0.90;;
80257;SDS011;69565;37.974;23.708;2023-05-14T05:49:05;2.38;;;0.90;;
80257;SDS011;69565;37.974;23.708;2023-05-14T05:51:30;2.33;;;0.95;;
80257;SDS011;69565;37.974;23.708;2023-05-14T05:53:57;1.00;;;0.80;;
80257;SDS011;69565;37.974;23.708;2023-05-14T05:56:22;2.38;;;1.00;;
80257;SDS011;69565;37.974;23.708;2023-05-14T05:58:48;3.53;;;0.80;;
80257;SDS011;69565;37.974;23.708;2023-05-14T06:01:14;1.58;;;0.88;;
80257;SDS011;69565;37.974;23.708;2023-05-14T06:03:39;2.88;;;0.98;;
80257;SDS011;69565;37.974;23.708;2023-05-14T06:06:05;1.20;;;0.80;;
80257;SDS011;69565;37.974;23.708;2023-05-14T06:08:31;1.80;;;0.82;;
80257;SDS011;69565;37.974;23.708;2023-05-14T06:10:57;3.85;;;0.80;;
80257;SDS011;69565;37.974;23.708;2023-05-14T06:13:22;1.33;;;0.90;;
80257;SDS011;69565;37.974;23.708;2023-05-14T06:15:48;3.72;;;1.00;;
80257;SDS011;69565;37.974;23.708;2023-05-14T06:18:14;1.23;;;0.80;;
80257;SDS011;69565;37.974;23.708;2023-05-14T06:20:39;1.88;;;0.82;;
80257;SDS011;69565;37.974;23.708;2023-05-14T06:23:05;2.47;;;0.80;;
80257;SDS011;69565;37.974;23.708;2023-05-14T06:25:32;1.15;;;0.88;;
80257;SDS011;69565;37.974;23.708;2023-05-14T06:27:58;3.05;;;0.90;;
80257;SDS011;69565;37.974;23.708;2023-05-14T06:30:23;1.85;;;1.00;;
80257;SDS011;69565;37.974;23.708;2023-05-14T06:32:49;6.57;;;0.85;;
80257;SDS011;69565;37.974;23.708;2023-05-14T06:35:16;1.65;;;0.80;;
80257;SDS011;69565;37.974;23.708;2023-05-14T06:37:43;2.58;;;0.82;;
80257;SDS011;69565;37.974;23.708;2023-05-14T06:40:09;2.42;;;1.00;;
80257;SDS011;69565;37.974;23.708;2023-05-14T06:42:35;2.30;;;0.90;;
80257;SDS011;69565;37.974;23.708;2023-05-14T06:45:01;1.33;;;0.80;;
80257;SDS011;69565;37.974;23.708;2023-05-14T06:47:26;2.80;;;0.90;;
80257;SDS011;69565;37.974;23.708;2023-05-14T06:49:52;2.20;;;0.85;;
80257;SDS011;69565;37.974;23.708;2023-05-14T06:52:19;1.65;;;0.85;;
80257;SDS011;69565;37.974;23.708;2023-05-14T06:54:45;1.35;;;0.80;;
80257;SDS011;69565;37.974;23.708;2023-05-14T06:57:11;2.05;;;0.80;;
80257;SDS011;69565;37.974;23.708;2023-05-14T06:59:36;1.90;;;0.80;;
80257;SDS011;69565;37.974;23.708;2023-05-14T07:02:02;1.52;;;0.80;;
80257;SDS011;69565;37.974;23.708;2023-05-14T07:04:28;3.40;;;0.80;;
80257;SDS011;69565;37.974;23.708;2023-05-14T07:06:54;1.70;;;0.80;;
80257;SDS011;69565;37.974;23.708;2023-05-14T07:09:19;1.23;;;0.80;;
80257;SDS011;69565;37.974;23.708;2023-05-14T07:11:46;2.13;;;0.80;;
80257;SDS011;69565;37.974;23.708;2023-05-14T07:14:11;3.53;;;0.90;;
80257;SDS011;69565;37.974;23.708;2023-05-14T07:16:37;3.53;;;0.82;;
80257;SDS011;69565;37.974;23.708;2023-05-14T07:19:03;1.45;;;0.80;;
80257;SDS011;69565;37.974;23.708;2023-05-14T07:21:28;1.48;;;0.90;;
80257;SDS011;69565;37.974;23.708;2023-05-14T07:23:54;1.20;;;0.90;;
80257;SDS011;69565;37.974;23.708;2023-05-14T07:26:20;3.72;;;0.90;;
80257;SDS011;69565;37.974;23.708;2023-05-14T07:28:48;2.47;;;0.90;;
80257;SDS011;69565;37.974;23.708;2023-05-14T07:31:14;5.10;;;0.90;;
80257;SDS011;69565;37.974;23.708;2023-05-14T07:33:39;2.30;;;0.80;;
80257;SDS011;69565;37.974;23.708;2023-05-14T07:36:05;2.08;;;0.90;;
80257;SDS011;69565;37.974;23.708;2023-05-14T07:38:31;1.10;;;0.75;;
80257;SDS011;69565;37.974;23.708;2023-05-14T07:40:58;2.17;;;0.90;;
80257;SDS011;69565;37.974;23.708;2023-05-14T07:43:23;1.40;;;0.90;;
80257;SDS011;69565;37.974;23.708;2023-05-14T07:45:49;1.77;;;0.80;;
80257;SDS011;69565;37.974;23.708;2023-05-14T07:48:15;2.88;;;0.80;;
80257;SDS011;69565;37.974;23.708;2023-05-14T07:50:41;1.25;;;0.85;;
80257;SDS011;69565;37.974;23.708;2023-05-14T07:53:06;1.67;;;0.70;;
80257;SDS011;69565;37.974;23.708;2023-05-14T07:55:32;2.15;;;0.80;;
80257;SDS011;69565;37.974;23.708;2023-05-14T07:57:58;2.03;;;0.90;;
80257;SDS011;69565;37.974;23.708;2023-05-14T08:00:23;1.73;;;0.77;;
80257;SDS011;69565;37.974;23.708;2023-05-14T08:02:49;1.10;;;0.70;;
80257;SDS011;69565;37.974;23.708;2023-05-14T08:05:15;1.38;;;0.73;;
80257;SDS011;69565;37.974;23.708;2023-05-14T08:07:42;1.38;;;0.90;;
80257;SDS011;69565;37.974;23.708;2023-05-14T08:10:08;1.52;;;0.70;;
80257;SDS011;69565;37.974;23.708;2023-05-14T08:12:34;1.42;;;0.80;;
80257;SDS011;69565;37.974;23.708;2023-05-14T08:14:59;1.20;;;0.80;;
80257;SDS011;69565;37.974;23.708;2023-05-14T08:17:26;1.20;;;0.80;;
80257;SDS011;69565;37.974;23.708;2023-05-14T08:19:52;1.70;;;0.80;;
80257;SDS011;69565;37.974;23.708;2023-05-14T08:22:18;2.50;;;0.80;;
80257;SDS011;69565;37.974;23.708;2023-05-14T08:24:43;1.55;;;0.90;;
80257;SDS011;69565;37.974;23.708;2023-05-14T08:27:09;2.25;;;0.70;;
80257;SDS011;69565;37.974;23.708;2023-05-14T08:29:35;1.02;;;0.75;;
80257;SDS011;69565;37.974;23.708;2023-05-14T08:32:01;1.52;;;0.80;;
80257;SDS011;69565;37.974;23.708;2023-05-14T08:34:26;1.45;;;0.80;;
80257;SDS011;69565;37.974;23.708;2023-05-14T08:36:52;1.90;;;0.80;;
80257;SDS011;69565;37.974;23.708;2023-05-14T08:39:18;2.03;;;0.80;;
80257;SDS011;69565;37.974;23.708;2023-05-14T08:41:44;2.47;;;0.85;;
80257;SDS011;69565;37.974;23.708;2023-05-14T08:46:39;0.98;;;0.70;;
80257;SDS011;69565;37.974;23.708;2023-05-14T08:52:09;1.70;;;0.90;;
80257;SDS011;69565;37.974;23.708;2023-05-14T08:54:36;1.88;;;0.93;;
80257;SDS011;69565;37.974;23.708;2023-05-14T08:57:02;2.15;;;0.80;;
80257;SDS011;69565;37.974;23.708;2023-05-14T08:59:29;2.85;;;0.90;;
80257;SDS011;69565;37.974;23.708;2023-05-14T09:01:55;1.52;;;0.85;;
80257;SDS011;69565;37.974;23.708;2023-05-14T09:04:24;3.28;;;1.00;;
80257;SDS011;69565;37.974;23.708;2023-05-14T09:06:52;2.38;;;0.90;;
80257;SDS011;69565;37.974;23.708;2023-05-14T09:09:18;2.53;;;1.00;;
80257;SDS011;69565;37.974;23.708;2023-05-14T09:11:48;5.25;;;1.00;;
80257;SDS011;69565;37.974;23.708;2023-05-14T09:14:15;1.33;;;0.80;;
80257;SDS011;69565;37.974;23.708;2023-05-14T09:16:44;6.10;;;1.00;;
80257;SDS011;69565;37.974;23.708;2023-05-14T09:19:12;1.88;;;0.90;;
80257;SDS011;69565;37.974;23.708;2023-05-14T09:21:39;4.00;;;0.90;;
80257;SDS011;69565;37.974;23.708;2023-05-14T09:24:06;3.95;;;1.00;;
80257;SDS011;69565;37.974;23.708;2023-05-14T09:26:32;2.50;;;0.90;;
80257;SDS011;69565;37.974;23.708;2023-05-14T09:28:59;4.35;;;1.02;;
80257;SDS011;69565;37.974;23.708;2023-05-14T09:31:30;4.38;;;1.10;;
80257;SDS011;69565;37.974;23.708;2023-05-14T09:33:57;2.42;;;1.10;;
80257;SDS011;69565;37.974;23.708;2023-05-14T09:36:23;1.73;;;0.88;;
80257;SDS011;69565;37.974;23.708;2023-05-14T09:38:51;5.18;;;1.02;;
80257;SDS011;69565;37.974;23.708;2023-05-14T09:41:22;2.55;;;1.00;;
80257;SDS011;69565;37.974;23.708;2023-05-14T09:43:49;3.10;;;1.02;;
80257;SDS011;69565;37.974;23.708;2023-05-14T09:46:15;3.70;;;1.00;;
80257;SDS011;69565;37.974;23.708;2023-05-14T09:48:41;5.90;;;1.20;;
80257;SDS011;69565;37.974;23.708;2023-05-14T09:51:08;3.70;;;1.10;;
80257;SDS011;69565;37.974;23.708;2023-05-14T09:53:35;4.82;;;1.00;;
80257;SDS011;69565;37.974;23.708;2023-05-14T09:56:01;3.47;;;0.80;;
80257;SDS011;69565;37.974;23.708;2023-05-14T09:58:27;5.75;;;1.10;;
80257;SDS011;69565;37.974;23.708;2023-05-14T10:00:53;3.35;;;1.10;;
80257;SDS011;69565;37.974;23.708;2023-05-14T10:03:22;3.28;;;0.90;;
80257;SDS011;69565;37.974;23.708;2023-05-14T10:05:50;3.03;;;0.98;;
80257;SDS011;69565;37.974;23.708;2023-05-14T10:08:24;5.25;;;1.02;;
80257;SDS011;69565;37.974;23.708;2023-05-14T10:10:55;5.30;;;1.00;;
80257;SDS011;69565;37.974;23.708;2023-05-14T10:13:25;5.30;;;0.90;;
80257;SDS011;69565;37.974;23.708;2023-05-14T10:15:56;2.30;;;0.90;;
80257;SDS011;69565;37.974;23.708;2023-05-14T10:18:29;1.42;;;0.82;;
80257;SDS011;69565;37.974;23.708;2023-05-14T10:21:03;2.43;;;1.00;;
80257;SDS011;69565;37.974;23.708;2023-05-14T10:23:30;3.25;;;0.85;;
80257;SDS011;69565;37.974;23.708;2023-05-14T10:25:56;4.30;;;1.00;;
80257;SDS011;69565;37.974;23.708;2023-05-14T10:28:23;1.42;;;0.80;;
80257;SDS011;69565;37.974;23.708;2023-05-14T10:30:48;5.50;;;0.80;;
80257;SDS011;69565;37.974;23.708;2023-05-14T10:33:15;1.55;;;0.80;;
80257;SDS011;69565;37.974;23.708;2023-05-14T10:36:24;3.83;;;0.90;;
80257;SDS011;69565;37.974;23.708;2023-05-14T10:38:32;2.25;;;0.80;;
80257;SDS011;69565;37.974;23.708;2023-05-14T10:41:20;6.03;;;0.93;;
80257;SDS011;69565;37.974;23.708;2023-05-14T10:43:46;8.25;;;0.95;;
80257;SDS011;69565;37.974;23.708;2023-05-14T10:46:12;3.72;;;1.30;;
80257;SDS011;69565;37.974;23.708;2023-05-14T10:48:40;6.30;;;1.17;;
80257;SDS011;69565;37.974;23.708;2023-05-14T10:51:10;3.38;;;1.00;;
80257;SDS011;69565;37.974;23.708;2023-05-14T10:53:40;5.80;;;1.30;;
80257;SDS011;69565;37.974;23.708;2023-05-14T10:56:07;3.42;;;1.42;;
80257;SDS011;69565;37.974;23.708;2023-05-14T10:58:38;4.85;;;1.30;;
80257;SDS011;69565;37.974;23.708;2023-05-14T11:01:06;7.78;;;1.45;;
80257;SDS011;69565;37.974;23.708;2023-05-14T11:03:37;4.68;;;1.40;;
80257;SDS011;69565;37.974;23.708;2023-05-14T11:06:05;2.60;;;1.58;;
80257;SDS011;69565;37.974;23.708;2023-05-14T11:08:31;4.35;;;1.75;;
80257;SDS011;69565;37.974;23.708;2023-05-14T11:10:58;2.92;;;1.60;;
80257;SDS011;69565;37.974;23.708;2023-05-14T11:13:27;7.07;;;1.67;;
80257;SDS011;69565;37.974;23.708;2023-05-14T11:15:54;4.45;;;1.92;;
80257;SDS011;69565;37.974;23.708;2023-05-14T11:18:30;4.45;;;1.50;;
80257;SDS011;69565;37.974;23.708;2023-05-14T11:21:05;5.63;;;1.40;;
80257;SDS011;69565;37.974;23.708;2023-05-14T11:23:31;4.22;;;1.40;;
80257;SDS011;69565;37.974;23.708;2023-05-14T11:25:57;3.15;;;1.33;;
80257;SDS011;69565;37.974;23.708;2023-05-14T11:28:23;5.30;;;1.15;;
80257;SDS011;69565;37.974;23.708;2023-05-14T11:30:50;5.25;;;1.40;;
80257;SDS011;69565;37.974;23.708;2023-05-14T11:33:17;3.53;;;1.10;;
80257;SDS011;69565;37.974;23.708;2023-05-14T11:35:44;2.13;;;1.20;;
80257;SDS011;69565;37.974;23.708;2023-05-14T11:38:17;3.05;;;1.27;;
80257;SDS011;69565;37.974;23.708;2023-05-14T11:40:51;4.85;;;1.17;;
80257;SDS011;69565;37.974;23.708;2023-05-14T11:43:21;3.85;;;1.20;;
80257;SDS011;69565;37.974;23.708;2023-05-14T11:45:50;2.65;;;1.13;;
80257;SDS011;69565;37.974;23.708;2023-05-14T11:48:17;7.15;;;1.45;;
80257;SDS011;69565;37.974;23.708;2023-05-14T11:50:47;5.00;;;1.17;;
80257;SDS011;69565;37.974;23.708;2023-05-14T11:53:15;7.97;;;1.20;;
80257;SDS011;69565;37.974;23.708;2023-05-14T11:55:48;2.33;;;1.10;;
80257;SDS011;69565;37.974;23.708;2023-05-14T11:58:14;3.83;;;1.20;;
80257;SDS011;69565;37.974;23.708;2023-05-14T12:00:48;4.80;;;1.10;;
80257;SDS011;69565;37.974;23.708;2023-05-14T12:03:15;2.53;;;1.10;;
80257;SDS011;69565;37.974;23.708;2023-05-14T12:05:55;6.13;;;1.20;;
80257;SDS011;69565;37.974;23.708;2023-05-14T12:08:26;5.03;;;1.17;;
80257;SDS011;69565;37.974;23.708;2023-05-14T12:10:53;4.28;;;1.00;;
80257;SDS011;69565;37.974;23.708;2023-05-14T12:13:20;4.30;;;1.02;;
80257;SDS011;69565;37.974;23.708;2023-05-14T12:15:47;4.55;;;1.10;;
80257;SDS011;69565;37.974;23.708;2023-05-14T12:18:19;4.88;;;1.00;;
80257;SDS011;69565;37.974;23.708;2023-05-14T12:20:48;6.93;;;1.00;;
80257;SDS011;69565;37.974;23.708;2023-05-14T12:23:15;2.42;;;0.95;;
80257;SDS011;69565;37.974;23.708;2023-05-14T12:25:50;4.78;;;0.90;;
80257;SDS011;69565;37.974;23.708;2023-05-14T12:28:16;2.42;;;0.93;;
80257;SDS011;69565;37.974;23.708;2023-05-14T12:30:43;3.25;;;1.10;;
80257;SDS011;69565;37.974;23.708;2023-05-14T12:33:10;2.13;;;1.00;;
80257;SDS011;69565;37.974;23.708;2023-05-14T12:35:35;3.63;;;1.20;;
80257;SDS011;69565;37.974;23.708;2023-05-14T12:38:02;3.72;;;1.00;;
80257;SDS011;69565;37.974;23.708;2023-05-14T12:40:28;2.63;;;1.00;;
80257;SDS011;69565;37.974;23.708;2023-05-14T12:42:54;5.50;;;0.90;;
80257;SDS011;69565;37.974;23.708;2023-05-14T12:45:20;10.43;;;0.90;;
80257;SDS011;69565;37.974;23.708;2023-05-14T12:47:46;5.38;;;1.00;;
80257;SDS011;69565;37.974;23.708;2023-05-14T12:50:11;4.35;;;1.00;;
80257;SDS011;69565;37.974;23.708;2023-05-14T12:52:37;4.78;;;1.00;;
80257;SDS011;69565;37.974;23.708;2023-05-14T12:55:03;5.97;;;1.08;;
80257;SDS011;69565;37.974;23.708;2023-05-14T12:57:29;2.30;;;1.10;;
80257;SDS011;69565;37.974;23.708;2023-05-14T12:59:55;2.42;;;1.00;;
80257;SDS011;69565;37.974;23.708;2023-05-14T13:02:21;1.48;;;0.90;;
80257;SDS011;69565;37.974;23.708;2023-05-14T13:04:47;3.80;;;0.90;;
80257;SDS011;69565;37.974;23.708;2023-05-14T13:07:12;1.38;;;0.90;;
80257;SDS011;69565;37.974;23.708;2023-05-14T13:09:38;3.90;;;0.90;;
80257;SDS011;69565;37.974;23.708;2023-05-14T13:12:04;6.10;;;0.90;;
80257;SDS011;69565;37.974;23.708;2023-05-14T13:14:30;2.42;;;0.90;;
80257;SDS011;69565;37.974;23.708;2023-05-14T13:16:56;4.70;;;0.98;;
80257;SDS011;69565;37.974;23.708;2023-05-14T13:19:21;5.00;;;1.00;;
80257;SDS011;69565;37.974;23.708;2023-05-14T13:21:47;3.40;;;0.90;;
80257;SDS011;69565;37.974;23.708;2023-05-14T13:24:13;2.30;;;0.80;;
80257;SDS011;69565;37.974;23.708;2023-05-14T13:26:39;1.55;;;0.75;;
80257;SDS011;69565;37.974;23.708;2023-05-14T13:29:04;3.05;;;1.00;;
80257;SDS011;69565;37.974;23.708;2023-05-14T13:31:30;4.95;;;0.90;;
80257;SDS011;69565;37.974;23.708;2023-05-14T13:33:56;3.45;;;0.80;;
80257;SDS011;69565;37.974;23.708;2023-05-14T13:36:23;2.45;;;0.80;;
80257;SDS011;69565;37.974;23.708;2023-05-14T13:38:49;2.15;;;0.85;;
80257;SDS011;69565;37.974;23.708;2023-05-14T13:41:14;2.03;;;1.00;;
80257;SDS011;69565;37.974;23.708;2023-05-14T13:43:40;2.67;;;0.88;;
80257;SDS011;69565;37.974;23.708;2023-05-14T13:46:06;3.33;;;0.82;;
80257;SDS011;69565;37.974;23.708;2023-05-14T13:48:32;6.60;;;0.90;;
80257;SDS011;69565;37.974;23.708;2023-05-14T13:50:58;1.50;;;0.85;;
80257;SDS011;69565;37.974;23.708;2023-05-14T13:53:24;4.25;;;0.90;;
80257;SDS011;69565;37.974;23.708;2023-05-14T13:55:50;2.30;;;0.90;;
80257;SDS011;69565;37.974;23.708;2023-05-14T13:58:22;3.90;;;0.80;;
80257;SDS011;69565;37.974;23.708;2023-05-14T14:00:49;3.67;;;0.85;;
80257;SDS011;69565;37.974;23.708;2023-05-14T14:03:15;1.67;;;0.80;;
80257;SDS011;69565;37.974;23.708;2023-05-14T14:05:41;2.85;;;0.77;;
80257;SDS011;69565;37.974;23.708;2023-05-14T14:08:06;3.45;;;0.80;;
80257;SDS011;69565;37.974;23.708;2023-05-14T14:10:32;2.58;;;0.80;;
80257;SDS011;69565;37.974;23.708;2023-05-14T14:12:58;2.38;;;0.80;;
80257;SDS011;69565;37.974;23.708;2023-05-14T14:15:24;4.05;;;0.80;;
80257;SDS011;69565;37.974;23.708;2023-05-14T14:17:49;1.67;;;0.70;;
80257;SDS011;69565;37.974;23.708;2023-05-14T14:20:18;1.48;;;0.80;;
80257;SDS011;69565;37.974;23.708;2023-05-14T14:22:44;5.95;;;0.80;;
80257;SDS011;69565;37.974;23.708;2023-05-14T14:25:10;4.68;;;0.75;;
80257;SDS011;69565;37.974;23.708;2023-05-14T14:27:36;3.55;;;0.80;;
80257;SDS011;69565;37.974;23.708;2023-05-14T14:32:33;1.40;;;0.73;;
80257;SDS011;69565;37.974;23.708;2023-05-14T14:34:59;1.92;;;0.80;;
80257;SDS011;69565;37.974;23.708;2023-05-14T14:37:25;2.97;;;0.80;;
80257;SDS011;69565;37.974;23.708;2023-05-14T14:39:51;1.48;;;0.68;;
80257;SDS011;69565;37.974;23.708;2023-05-14T14:42:16;1.45;;;0.70;;
80257;SDS011;69565;37.974;23.708;2023-05-14T14:44:42;2.08;;;0.80;;